createdAt,value
2023-04-15T00:00:48.194Z,11.73
2023-04-15T00:03:35.330Z,12.05
2023-04-15T00:06:22.633Z,13.32
2023-04-15T00:09:09.414Z,10.70
2023-04-15T00:11:56.226Z,12.43
2023-04-15T00:14:43.015Z,13.50
2023-04-15T00:17:30.241Z,12.05
2023-04-15T00:20:17.084Z,9.95
2023-04-15T00:23:04.234Z,9.73
2023-04-15T00:25:51.409Z,10.85
2023-04-15T00:28:38.182Z,9.63
2023-04-15T00:31:25.014Z,9.02
2023-04-15T00:34:11.913Z,10.20
2023-04-15T00:36:58.753Z,11.10
2023-04-15T00:39:45.559Z,11.18
2023-04-15T00:42:32.586Z,9.90
2023-04-15T00:45:19.649Z,11.70
2023-04-15T00:48:06.639Z,9.07
2023-04-15T00:50:53.516Z,11.15
2023-04-15T00:53:40.628Z,8.80
2023-04-15T00:56:28.894Z,11.10
2023-04-15T00:59:17.588Z,9.88
2023-04-15T01:02:05.516Z,14.20
2023-04-15T01:04:52.678Z,12.98
2023-04-15T01:07:39.496Z,10.70
2023-04-15T01:10:27.218Z,11.18
2023-04-15T01:13:14.050Z,11.98
2023-04-15T01:16:01.034Z,9.82
2023-04-15T01:18:48.924Z,12.20
2023-04-15T01:21:39.149Z,9.32
2023-04-15T01:24:27.595Z,12.45
2023-04-15T01:27:14.747Z,10.85
2023-04-15T01:30:01.574Z,9.23
2023-04-15T01:32:48.562Z,10.93
2023-04-15T01:35:35.449Z,9.52
2023-04-15T01:38:22.322Z,13.82
2023-04-15T01:41:09.140Z,11.05
2023-04-15T01:43:55.972Z,10.40
2023-04-15T01:46:42.885Z,10.98
2023-04-15T01:49:29.731Z,13.32
2023-04-15T01:52:16.545Z,19.73
2023-04-15T01:55:03.537Z,24.55
2023-04-15T01:57:50.394Z,20.17
2023-04-15T02:00:37.249Z,19.73
2023-04-15T02:03:25.615Z,18.30
2023-04-15T02:06:12.867Z,19.70
2023-04-15T02:08:59.934Z,21.30
2023-04-15T02:11:47.030Z,21.98
2023-04-15T02:14:33.905Z,25.05
2023-04-15T02:17:20.829Z,30.15
2023-04-15T02:20:09.108Z,34.00
2023-04-15T02:22:56.170Z,42.03
2023-04-15T02:25:42.944Z,47.15
2023-04-15T02:28:40.498Z,43.20
2023-04-15T02:31:27.343Z,47.45
2023-04-15T02:34:14.276Z,44.55
2023-04-15T02:37:04.890Z,44.00
2023-04-15T02:39:52.504Z,44.58
2023-04-15T02:42:40.834Z,43.80
2023-04-15T02:45:31.045Z,42.80
2023-04-15T02:48:20.991Z,40.63
2023-04-15T02:51:15.270Z,39.03
2023-04-15T02:54:02.059Z,37.85
2023-04-15T02:56:49.089Z,43.53
2023-04-15T02:59:35.923Z,39.38
2023-04-15T03:02:23.143Z,37.70
2023-04-15T03:05:14.198Z,43.17
2023-04-15T03:08:07.193Z,36.92
2023-04-15T03:10:53.956Z,37.28
2023-04-15T03:13:42.834Z,36.85
2023-04-15T03:16:40.565Z,37.72
2023-04-15T03:19:27.664Z,36.63
2023-04-15T03:22:14.442Z,48.40
2023-04-15T03:25:01.316Z,43.65
2023-04-15T03:27:48.229Z,39.13
2023-04-15T03:30:35.150Z,44.70
2023-04-15T03:33:22.004Z,54.20
2023-04-15T03:36:08.853Z,46.92
2023-04-15T03:38:55.685Z,41.40
2023-04-15T03:41:42.510Z,45.58
2023-04-15T03:44:29.329Z,50.03
2023-04-15T03:47:16.130Z,49.63
2023-04-15T03:50:03.145Z,43.88
2023-04-15T03:52:51.147Z,44.40
2023-04-15T03:55:38.087Z,42.55
2023-04-15T03:58:24.837Z,41.45
2023-04-15T04:01:11.701Z,45.97
2023-04-15T04:03:58.731Z,42.97
2023-04-15T04:06:45.700Z,46.38
2023-04-15T04:09:32.538Z,48.83
2023-04-15T04:12:19.524Z,41.58
2023-04-15T04:15:06.853Z,47.88
2023-04-15T04:17:53.746Z,51.15
2023-04-15T04:20:40.596Z,47.22
2023-04-15T04:23:27.540Z,40.03
2023-04-15T04:26:14.363Z,35.35
2023-04-15T04:29:01.391Z,40.60
2023-04-15T04:31:48.577Z,39.25
2023-04-15T04:34:35.462Z,39.92
2023-04-15T04:37:22.262Z,44.53
2023-04-15T04:40:09.593Z,38.55
2023-04-15T04:42:56.455Z,31.77
2023-04-15T04:45:43.261Z,34.20
2023-04-15T04:48:30.089Z,31.75
2023-04-15T04:51:18.377Z,38.75
2023-04-15T04:54:05.278Z,40.08
2023-04-15T04:56:52.107Z,36.65
2023-04-15T04:59:39.217Z,40.08
2023-04-15T05:02:26.131Z,36.20
2023-04-15T05:05:13.027Z,32.97
2023-04-15T05:07:59.853Z,35.28
2023-04-15T05:10:46.809Z,32.25
2023-04-15T05:13:33.656Z,32.28
2023-04-15T05:16:20.525Z,41.70
2023-04-15T05:19:07.473Z,34.65
2023-04-15T05:21:54.413Z,34.95
2023-04-15T05:24:41.241Z,32.63
2023-04-15T05:27:28.037Z,31.33
2023-04-15T05:30:14.817Z,35.53
2023-04-15T05:33:01.725Z,27.23
2023-04-15T05:35:48.574Z,32.33
2023-04-15T05:38:35.341Z,37.97
2023-04-15T05:41:22.217Z,33.03
2023-04-15T05:44:08.972Z,30.70
2023-04-15T05:46:55.758Z,29.45
2023-04-15T05:49:42.519Z,33.13
2023-04-15T05:52:29.427Z,29.70
2023-04-15T05:55:16.276Z,31.85
2023-04-15T05:58:03.062Z,32.17
2023-04-15T06:00:49.884Z,29.42
2023-04-15T06:03:36.813Z,28.35
2023-04-15T06:06:24.077Z,30.77
2023-04-15T06:09:10.878Z,32.35
2023-04-15T06:11:58.879Z,33.03
2023-04-15T06:14:45.681Z,34.13
2023-04-15T06:17:32.518Z,34.22
2023-04-15T06:20:19.335Z,38.80
2023-04-15T06:23:06.158Z,31.40
2023-04-15T06:25:52.967Z,34.35
2023-04-15T06:28:39.769Z,33.17
2023-04-15T06:31:26.919Z,36.90
2023-04-15T06:34:13.739Z,36.65
2023-04-15T06:37:00.558Z,40.03
2023-04-15T06:39:47.375Z,40.42
2023-04-15T06:42:35.006Z,38.67
2023-04-15T06:45:21.769Z,40.53
2023-04-15T06:48:08.557Z,40.47
2023-04-15T06:50:55.412Z,38.92
2023-04-15T06:53:42.259Z,41.85
2023-04-15T06:56:29.311Z,36.17
2023-04-15T06:59:16.103Z,41.33
2023-04-15T07:02:03.056Z,39.45
2023-04-15T07:04:50.008Z,37.55
2023-04-15T07:07:36.850Z,32.95
2023-04-15T07:10:24.602Z,36.05
2023-04-15T07:13:12.880Z,37.63
2023-04-15T07:15:59.752Z,35.22
2023-04-15T07:18:46.606Z,39.70
2023-04-15T07:21:33.417Z,32.28
2023-04-15T07:24:20.262Z,40.15
2023-04-15T07:27:07.095Z,35.45
2023-04-15T07:29:53.880Z,36.22
2023-04-15T07:32:41.700Z,38.38
2023-04-15T07:35:28.509Z,34.03
2023-04-15T07:38:15.453Z,27.90
2023-04-15T07:41:02.308Z,34.03
2023-04-15T07:43:49.241Z,29.05
2023-04-15T07:46:36.206Z,31.50
2023-04-15T07:49:23.156Z,31.50
2023-04-15T07:52:09.977Z,30.25
2023-04-15T07:54:56.787Z,29.50
2023-04-15T07:57:43.630Z,30.05
2023-04-15T08:00:30.523Z,32.20
2023-04-15T08:03:17.415Z,31.23
2023-04-15T08:06:04.433Z,38.00
2023-04-15T08:08:51.247Z,28.30
2023-04-15T08:11:38.085Z,28.52
2023-04-15T08:14:24.980Z,28.33
2023-04-15T08:17:11.799Z,32.03
2023-04-15T08:19:58.598Z,26.67
2023-04-15T08:22:45.396Z,26.25
2023-04-15T08:25:32.206Z,34.97
2023-04-15T08:28:19.019Z,32.08
2023-04-15T08:31:06.052Z,27.33
2023-04-15T08:33:52.948Z,26.17
2023-04-15T08:36:39.773Z,23.60
2023-04-15T08:39:26.584Z,25.67
2023-04-15T08:42:17.452Z,21.80
2023-04-15T08:45:05.123Z,29.55
2023-04-15T08:47:56.015Z,25.33
2023-04-15T08:50:43.337Z,22.17
2023-04-15T08:53:30.546Z,23.40
2023-04-15T08:56:19.142Z,19.38
2023-04-15T08:59:07.217Z,37.10
2023-04-15T09:01:54.820Z,25.67
2023-04-15T09:04:41.599Z,27.30
2023-04-15T09:07:28.352Z,18.63
2023-04-15T09:10:15.144Z,23.50
2023-04-15T09:13:02.087Z,20.02
2023-04-15T09:15:48.910Z,18.27
2023-04-15T09:18:36.842Z,17.15
2023-04-15T09:21:24.589Z,13.15
2023-04-15T09:24:11.507Z,18.10
2023-04-15T09:26:58.384Z,19.95
2023-04-15T09:29:50.132Z,20.95
2023-04-15T09:35:34.983Z,16.50
2023-04-15T09:38:21.791Z,15.23
2023-04-15T09:41:17.494Z,11.43
2023-04-15T09:44:04.566Z,13.13
2023-04-15T09:46:51.387Z,15.55
2023-04-15T09:49:38.321Z,15.07
2023-04-15T09:52:25.308Z,14.57
2023-04-15T09:55:13.777Z,18.98
2023-04-15T09:58:00.627Z,13.23
2023-04-15T10:00:48.870Z,14.45
2023-04-15T10:03:36.090Z,13.02
2023-04-15T10:06:25.878Z,11.48
2023-04-15T10:09:13.356Z,14.68
2023-04-15T10:12:00.305Z,14.52
2023-04-15T10:14:59.409Z,11.20
2023-04-15T10:17:48.460Z,11.27
2023-04-15T10:20:36.757Z,9.65
2023-04-15T10:23:23.676Z,13.07
2023-04-15T10:26:12.164Z,13.23
2023-04-15T10:29:00.190Z,13.15
2023-04-15T10:31:48.509Z,9.35
2023-04-15T10:34:35.938Z,13.60
2023-04-15T10:37:33.364Z,12.02
2023-04-15T10:40:27.824Z,15.27
2023-04-15T10:43:25.538Z,14.93
2023-04-15T10:46:12.362Z,13.77
2023-04-15T10:49:07.911Z,13.32
2023-04-15T10:51:58.608Z,14.13
2023-04-15T10:54:45.490Z,10.23
2023-04-15T10:57:38.466Z,11.48
2023-04-15T11:00:26.508Z,13.20
2023-04-15T11:03:13.473Z,16.95
2023-04-15T11:06:00.404Z,12.77
2023-04-15T11:09:00.178Z,14.07
2023-04-15T11:12:06.446Z,12.25
2023-04-15T11:14:53.300Z,9.30
2023-04-15T11:17:40.331Z,11.50
2023-04-15T11:20:27.179Z,13.05
2023-04-15T11:23:15.834Z,15.85
2023-04-15T11:26:05.320Z,9.52
2023-04-15T11:28:52.149Z,12.82
2023-04-15T11:31:38.979Z,15.05
2023-04-15T11:34:25.856Z,13.50
2023-04-15T11:37:12.715Z,15.77
2023-04-15T11:39:59.550Z,15.05
2023-04-15T11:42:49.626Z,11.07
2023-04-15T11:45:38.332Z,10.25
2023-04-15T11:48:33.496Z,15.05
2023-04-15T11:51:20.382Z,10.60
2023-04-15T11:54:07.471Z,21.20
2023-04-15T11:56:54.502Z,9.45
2023-04-15T11:59:46.021Z,13.63
2023-04-15T12:02:37.267Z,8.13
2023-04-15T12:05:24.365Z,10.05
2023-04-15T12:08:11.201Z,12.38
2023-04-15T12:10:59.464Z,14.07
2023-04-15T12:13:48.261Z,11.55
2023-04-15T12:16:48.394Z,16.15
2023-04-15T12:19:37.391Z,10.10
2023-04-15T12:22:24.250Z,11.90
2023-04-15T12:25:11.037Z,12.73
2023-04-15T12:27:57.810Z,12.35
2023-04-15T12:30:51.024Z,10.85
2023-04-15T12:33:38.302Z,11.25
2023-04-15T12:36:25.233Z,9.95
2023-04-15T12:39:12.825Z,10.93
2023-04-15T12:41:59.817Z,12.52
2023-04-15T12:44:46.771Z,9.05
2023-04-15T12:47:33.622Z,8.45
2023-04-15T12:50:20.424Z,12.15
2023-04-15T12:53:07.271Z,9.05
2023-04-15T12:55:54.542Z,11.68
2023-04-15T12:58:41.327Z,10.25
2023-04-15T13:01:28.154Z,12.88
2023-04-15T13:04:16.409Z,10.82
2023-04-15T13:07:03.440Z,10.65
2023-04-15T13:09:50.228Z,10.43
2023-04-15T13:12:37.088Z,14.32
2023-04-15T13:15:24.019Z,13.35
2023-04-15T13:18:10.869Z,15.70
2023-04-15T13:20:57.699Z,14.65
2023-04-15T13:23:44.523Z,11.60
2023-04-15T13:26:31.314Z,9.05
2023-04-15T13:29:18.146Z,12.75
2023-04-15T13:32:05.224Z,11.15
2023-04-15T13:34:52.202Z,13.77
2023-04-15T13:37:39.037Z,15.55
2023-04-15T13:40:25.856Z,9.98
2023-04-15T13:43:12.640Z,12.57
2023-04-15T13:45:59.616Z,10.48
2023-04-15T13:48:46.410Z,17.77
2023-04-15T13:51:33.231Z,12.90
2023-04-15T13:54:19.985Z,10.38
2023-04-15T13:57:07.000Z,12.45
2023-04-15T13:59:53.922Z,12.73
2023-04-15T14:02:41.141Z,12.32
2023-04-15T14:05:28.129Z,13.57
2023-04-15T14:08:14.928Z,10.77
2023-04-15T14:11:01.760Z,14.27
2023-04-15T14:13:48.539Z,14.10
2023-04-15T14:16:35.431Z,10.77
2023-04-15T14:19:22.246Z,11.18
2023-04-15T14:22:09.046Z,13.30
2023-04-15T14:24:55.838Z,10.38
2023-04-15T14:27:42.644Z,12.80
2023-04-15T14:30:29.493Z,10.63
2023-04-15T14:33:16.398Z,11.45
2023-04-15T14:36:03.405Z,13.05
2023-04-15T14:38:50.261Z,14.57
2023-04-15T14:41:37.138Z,12.43
2023-04-15T14:44:23.949Z,12.48
2023-04-15T14:47:10.748Z,8.73
2023-04-15T14:49:57.709Z,14.15
2023-04-15T14:52:44.573Z,8.90
2023-04-15T14:55:31.362Z,10.07
2023-04-15T14:58:18.202Z,10.07
2023-04-15T15:01:05.220Z,12.73
2023-04-15T15:03:52.178Z,11.75
2023-04-15T15:06:39.905Z,10.27
2023-04-15T15:09:27.029Z,11.90
2023-04-15T15:12:13.838Z,10.80
2023-04-15T15:15:02.920Z,13.13
2023-04-15T15:17:51.785Z,8.35
2023-04-15T15:20:38.594Z,8.55
2023-04-15T15:23:25.409Z,8.50
2023-04-15T15:26:12.554Z,7.35
2023-04-15T15:28:59.359Z,5.75
2023-04-15T15:31:46.412Z,6.85
2023-04-15T15:34:33.311Z,7.45
2023-04-15T15:37:20.174Z,5.65
2023-04-15T15:40:08.062Z,5.78
2023-04-15T15:42:54.891Z,4.72
2023-04-15T15:45:41.745Z,6.60
2023-04-15T15:48:28.581Z,4.80
2023-04-15T15:51:15.394Z,5.38
2023-04-15T15:54:02.272Z,7.50
2023-04-15T15:56:49.074Z,7.53
2023-04-15T15:59:35.882Z,6.00
2023-04-15T16:02:40.069Z,6.68
2023-04-15T16:05:29.424Z,5.80
2023-04-15T16:08:16.256Z,7.53
2023-04-15T16:11:03.129Z,5.18
2023-04-15T16:13:49.933Z,7.47
2023-04-15T16:16:38.652Z,8.07
2023-04-15T16:19:25.505Z,9.30
2023-04-15T16:22:12.363Z,9.13
2023-04-15T16:24:59.602Z,9.90
2023-04-15T16:27:58.957Z,8.68
2023-04-15T16:30:50.339Z,12.60
2023-04-15T16:33:37.397Z,14.73
2023-04-15T16:36:24.196Z,50.63
2023-04-15T16:39:11.023Z,90.85
2023-04-15T16:41:58.003Z,31.15
2023-04-15T16:44:44.828Z,11.48
2023-04-15T16:47:31.694Z,9.50
2023-04-15T16:50:18.628Z,6.90
2023-04-15T16:53:05.483Z,5.57
2023-04-15T16:55:52.312Z,7.47
2023-04-15T16:58:39.101Z,7.80
2023-04-15T17:01:26.003Z,119.55
2023-04-15T17:04:12.908Z,17.40
2023-04-15T17:06:59.851Z,8.13
2023-04-15T17:09:46.604Z,11.35
2023-04-15T17:12:33.497Z,10.38
2023-04-15T17:15:20.293Z,10.23
2023-04-15T17:18:07.106Z,9.40
2023-04-15T17:20:55.731Z,7.15
2023-04-15T17:23:42.577Z,9.43
2023-04-15T17:26:29.461Z,9.82
2023-04-15T17:29:16.281Z,10.57
2023-04-15T17:32:03.847Z,11.95
2023-04-15T17:34:51.348Z,49.28
2023-04-15T17:37:38.452Z,32.13
2023-04-15T17:40:25.283Z,9.70
2023-04-15T17:43:12.066Z,20.08
2023-04-15T17:45:58.848Z,17.67
2023-04-15T17:48:46.474Z,21.23
2023-04-15T17:51:33.361Z,15.98
2023-04-15T17:54:26.724Z,9.10
2023-04-15T17:57:13.656Z,7.95
2023-04-15T18:00:00.551Z,6.63
2023-04-15T18:02:47.407Z,8.38
2023-04-15T18:05:34.419Z,6.90
2023-04-15T18:08:21.293Z,7.55
2023-04-15T18:11:08.134Z,8.02
2023-04-15T18:13:54.960Z,10.60
2023-04-15T18:16:41.883Z,11.20
2023-04-15T18:19:29.749Z,28.20
2023-04-15T18:22:16.560Z,12.88
2023-04-15T18:25:04.045Z,9.52
2023-04-15T18:27:51.035Z,16.70
2023-04-15T18:30:37.893Z,11.50
2023-04-15T18:33:24.753Z,9.20
2023-04-15T18:36:11.587Z,8.27
2023-04-15T18:38:58.434Z,9.05
2023-04-15T18:41:45.248Z,7.22
2023-04-15T18:44:32.130Z,10.05
2023-04-15T18:47:19.324Z,6.75
2023-04-15T18:50:07.513Z,7.60
2023-04-15T18:52:54.364Z,7.75
2023-04-15T18:55:41.172Z,8.40
2023-04-15T18:58:27.980Z,6.90
2023-04-15T19:01:34.815Z,7.22
2023-04-15T19:04:21.828Z,8.88
2023-04-15T19:07:08.647Z,8.35
2023-04-15T19:09:55.536Z,7.53
2023-04-15T19:12:42.353Z,9.20
2023-04-15T19:15:29.605Z,8.68
2023-04-15T19:18:16.403Z,9.25
2023-04-15T19:21:03.350Z,9.40
2023-04-15T19:23:50.213Z,9.35
2023-04-15T19:26:37.036Z,12.75
2023-04-15T19:29:25.037Z,9.60
2023-04-15T19:32:11.844Z,11.15
2023-04-15T19:34:58.793Z,13.70
2023-04-15T19:37:47.423Z,15.15
2023-04-15T19:40:34.224Z,15.88
2023-04-15T19:43:21.074Z,17.00
2023-04-15T19:46:08.141Z,12.35
2023-04-15T19:48:55.336Z,15.43
2023-04-15T19:51:42.232Z,10.73
2023-04-15T19:54:29.042Z,12.75
2023-04-15T19:57:15.830Z,12.02
2023-04-15T20:00:02.670Z,10.02
2023-04-15T20:02:52.710Z,9.75
2023-04-15T20:05:39.636Z,10.70
2023-04-15T20:08:26.460Z,11.15
2023-04-15T20:11:15.197Z,14.15
2023-04-15T20:14:02.151Z,12.85
2023-04-15T20:16:49.265Z,12.90
2023-04-15T20:19:36.071Z,11.73
2023-04-15T20:22:22.954Z,12.90
2023-04-15T20:25:09.920Z,14.07
2023-04-15T20:27:56.715Z,11.40
2023-04-15T20:30:43.574Z,12.00
2023-04-15T20:33:30.508Z,12.30
2023-04-15T20:36:17.339Z,12.52
2023-04-15T20:39:07.074Z,13.32
2023-04-15T20:41:54.024Z,17.60
2023-04-15T20:44:40.835Z,9.93
2023-04-15T20:47:27.869Z,11.13
2023-04-15T20:50:14.772Z,12.18
2023-04-15T20:53:01.601Z,11.15
2023-04-15T20:55:48.523Z,12.50
2023-04-15T20:58:35.319Z,11.07
2023-04-15T21:01:22.206Z,8.73
2023-04-15T21:04:09.191Z,9.50
2023-04-15T21:06:56.065Z,10.95
2023-04-15T21:09:42.874Z,14.93
2023-04-15T21:12:29.702Z,11.57
2023-04-15T21:15:16.510Z,12.57
2023-04-15T21:18:03.358Z,11.25
2023-04-15T21:21:01.062Z,13.38
2023-04-15T21:23:47.851Z,13.95
2023-04-15T21:26:34.692Z,12.05
2023-04-15T21:29:21.510Z,14.07
2023-04-15T21:32:08.497Z,15.27
2023-04-15T21:34:55.365Z,11.52
2023-04-15T21:37:42.174Z,12.32
2023-04-15T21:40:29.569Z,11.68
2023-04-15T21:43:16.482Z,11.73
2023-04-15T21:46:23.229Z,13.88
2023-04-15T21:49:10.219Z,13.68
2023-04-15T21:51:57.056Z,13.45
2023-04-15T21:54:43.848Z,17.33
2023-04-15T21:57:30.641Z,11.50
2023-04-15T22:00:17.479Z,13.98
2023-04-15T22:03:04.389Z,14.07
2023-04-15T22:05:51.316Z,12.27
2023-04-15T22:08:48.250Z,12.75
2023-04-15T22:11:42.597Z,15.55
2023-04-15T22:14:30.150Z,15.10
2023-04-15T22:17:16.958Z,15.02
2023-04-15T22:20:03.994Z,16.17
2023-04-15T22:22:54.349Z,13.95
2023-04-15T22:25:41.323Z,11.73
2023-04-15T22:28:28.123Z,14.07
2023-04-15T22:31:14.958Z,14.50
2023-04-15T22:34:01.928Z,13.68
2023-04-15T22:36:49.683Z,13.95
2023-04-15T22:39:36.540Z,14.10
2023-04-15T22:42:24.506Z,13.48
2023-04-15T22:45:11.485Z,16.58
2023-04-15T22:47:58.330Z,14.98
2023-04-15T22:50:45.313Z,12.82
2023-04-15T22:53:32.187Z,12.57
2023-04-15T22:56:21.100Z,11.50
2023-04-15T22:59:08.300Z,11.32
2023-04-15T23:01:55.349Z,11.65
2023-04-15T23:04:42.339Z,15.57
2023-04-15T23:07:29.212Z,15.60
2023-04-15T23:10:16.037Z,13.77
2023-04-15T23:13:02.816Z,15.32
2023-04-15T23:15:49.698Z,15.55
2023-04-15T23:18:36.520Z,14.15
2023-04-15T23:21:25.509Z,15.75
2023-04-15T23:24:12.946Z,15.75
2023-04-15T23:26:59.762Z,13.77
2023-04-15T23:29:46.554Z,15.57
2023-04-15T23:32:33.449Z,19.50
2023-04-15T23:35:20.250Z,16.73
2023-04-15T23:38:07.053Z,14.27
2023-04-15T23:40:53.855Z,18.00
2023-04-15T23:43:40.646Z,18.30
2023-04-15T23:46:27.539Z,19.02
2023-04-15T23:49:14.554Z,17.90
2023-04-15T23:52:01.403Z,20.17
2023-04-15T23:54:48.210Z,19.90
2023-04-15T23:57:34.974Z,19.33
